sensor_id;sensor_type;location;lat;lon;timestamp;pressure;altitude;pressure_sealevel;temperature;humidity
10978;BME280;5542;48.272;10.794;2023-01-27T00:00:05;95741.63;;;-1.18;91.64
10978;BME280;5542;48.272;10.794;2023-01-27T00:02:32;95745.53;;;-1.06;91.41
10978;BME280;5542;48.272;10.794;2023-01-27T00:04:59;95734.78;;;-0.77;88.64
10978;BME280;5542;48.272;10.794;2023-01-27T00:07:26;95736.00;;;-1.05;88.30
10978;BME280;5542;48.272;10.794;2023-01-27T00:09:53;95729.50;;;-1.17;88.77
10978;BME280;5542;48.272;10.794;2023-01-27T00:12:21;95733.28;;;-1.38;90.12
10978;BME280;5542;48.272;10.794;2023-01-27T00:15:08;95744.28;;;-1.36;91.51
10978;BME280;5542;48.272;10.794;2023-01-27T00:17:35;95740.13;;;-1.20;91.39
10978;BME280;5542;48.272;10.794;2023-01-27T00:20:02;95740.75;;;-1.26;91.05
10978;BME280;5542;48.272;10.794;2023-01-27T00:22:28;95734.47;;;-1.32;91.30
10978;BME280;5542;48.272;10.794;2023-01-27T00:25:13;95740.81;;;-1.18;90.59
10978;BME280;5542;48.272;10.794;2023-01-27T00:27:39;95725.34;;;-1.10;90.43
10978;BME280;5542;48.272;10.794;2023-01-27T00:30:09;95732.47;;;-1.04;90.32
10978;BME280;5542;48.272;10.794;2023-01-27T00:32:35;95724.25;;;-0.99;90.37
10978;BME280;5542;48.272;10.794;2023-01-27T00:35:20;95728.31;;;-0.89;90.11
10978;BME280;5542;48.272;10.794;2023-01-27T00:37:47;95727.06;;;-0.85;90.20
10978;BME280;5542;48.272;10.794;2023-01-27T00:40:15;95716.56;;;-0.75;89.13
10978;BME280;5542;48.272;10.794;2023-01-27T00:42:42;95712.56;;;-0.69;88.34
10978;BME280;5542;48.272;10.794;2023-01-27T00:45:10;95713.19;;;-0.67;88.00
10978;BME280;5542;48.272;10.794;2023-01-27T00:47:54;95709.97;;;-0.69;87.70
10978;BME280;5542;48.272;10.794;2023-01-27T00:50:21;95713.81;;;-0.73;87.75
10978;BME280;5542;48.272;10.794;2023-01-27T00:52:47;95708.16;;;-0.77;88.06
10978;BME280;5542;48.272;10.794;2023-01-27T00:55:15;95709.78;;;-0.68;87.24
10978;BME280;5542;48.272;10.794;2023-01-27T00:57:42;95709.31;;;-0.63;86.23
10978;BME280;5542;48.272;10.794;2023-01-27T01:00:12;95713.50;;;-0.62;86.35
10978;BME280;5542;48.272;10.794;2023-01-27T01:02:39;95725.66;;;-0.55;85.40
10978;BME280;5542;48.272;10.794;2023-01-27T01:05:06;95728.06;;;-0.61;85.72
10978;BME280;5542;48.272;10.794;2023-01-27T01:07:33;95728.53;;;-0.66;86.18
10978;BME280;5542;48.272;10.794;2023-01-27T01:10:00;95750.03;;;-0.49;84.24
10978;BME280;5542;48.272;10.794;2023-01-27T01:12:26;95744.78;;;-0.90;84.35
10978;BME280;5542;48.272;10.794;2023-01-27T01:14:53;95750.38;;;-1.02;85.67
10978;BME280;5542;48.272;10.794;2023-01-27T01:17:20;95752.13;;;-1.11;86.48
10978;BME280;5542;48.272;10.794;2023-01-27T01:19:47;95751.44;;;-1.21;86.86
10978;BME280;5542;48.272;10.794;2023-01-27T01:22:14;95758.25;;;-1.12;87.62
10978;BME280;5542;48.272;10.794;2023-01-27T01:24:40;95753.97;;;-1.30;87.63
10978;BME280;5542;48.272;10.794;2023-01-27T01:27:07;95760.16;;;-1.48;88.83
10978;BME280;5542;48.272;10.794;2023-01-27T01:29:34;95754.88;;;-1.39;89.24
10978;BME280;5542;48.272;10.794;2023-01-27T01:32:00;95746.91;;;-1.27;89.63
10978;BME280;5542;48.272;10.794;2023-01-27T01:34:28;95743.88;;;-1.49;88.62
10978;BME280;5542;48.272;10.794;2023-01-27T01:36:55;95740.38;;;-1.40;89.26
10978;BME280;5542;48.272;10.794;2023-01-27T01:39:21;95743.84;;;-1.23;88.99
10978;BME280;5542;48.272;10.794;2023-01-27T01:41:48;95744.91;;;-0.99;88.02
10978;BME280;5542;48.272;10.794;2023-01-27T01:44:19;95732.81;;;-0.99;87.80
10978;BME280;5542;48.272;10.794;2023-01-27T01:46:45;95735.41;;;-0.99;88.07
10978;BME280;5542;48.272;10.794;2023-01-27T01:49:12;95730.91;;;-0.89;88.45
10978;BME280;5542;48.272;10.794;2023-01-27T01:51:43;95729.63;;;-0.85;88.06
10978;BME280;5542;48.272;10.794;2023-01-27T01:54:12;95734.97;;;-0.78;87.65
10978;BME280;5542;48.272;10.794;2023-01-27T01:56:43;95730.78;;;-0.79;87.79
10978;BME280;5542;48.272;10.794;2023-01-27T01:59:15;95730.28;;;-0.83;87.65
10978;BME280;5542;48.272;10.794;2023-01-27T02:01:44;95732.84;;;-0.83;87.09
10978;BME280;5542;48.272;10.794;2023-01-27T02:04:14;95737.03;;;-0.90;85.60
10978;BME280;5542;48.272;10.794;2023-01-27T02:06:49;95729.72;;;-1.02;86.43
10978;BME280;5542;48.272;10.794;2023-01-27T02:09:19;95721.00;;;-1.01;86.89
10978;BME280;5542;48.272;10.794;2023-01-27T02:11:46;95719.22;;;-1.01;86.46
10978;BME280;5542;48.272;10.794;2023-01-27T02:14:15;95724.75;;;-0.96;87.22
10978;BME280;5542;48.272;10.794;2023-01-27T02:16:42;95724.75;;;-0.96;87.11
10978;BME280;5542;48.272;10.794;2023-01-27T02:19:15;95723.47;;;-0.92;87.66
10978;BME280;5542;48.272;10.794;2023-01-27T02:21:49;95720.91;;;-0.84;87.62
10978;BME280;5542;48.272;10.794;2023-01-27T02:24:16;95719.13;;;-0.83;87.47
10978;BME280;5542;48.272;10.794;2023-01-27T02:26:44;95713.50;;;-0.79;87.97
10978;BME280;5542;48.272;10.794;2023-01-27T02:29:13;95713.19;;;-0.75;87.93
10978;BME280;5542;48.272;10.794;2023-01-27T02:31:40;95711.56;;;-0.68;87.68
10978;BME280;5542;48.272;10.794;2023-01-27T02:34:09;95711.41;;;-0.67;87.65
10978;BME280;5542;48.272;10.794;2023-01-27T02:36:39;95707.06;;;-0.66;87.59
10978;BME280;5542;48.272;10.794;2023-01-27T02:39:08;95705.75;;;-0.62;87.80
10978;BME280;5542;48.272;10.794;2023-01-27T02:41:38;95722.09;;;-0.62;87.60
10978;BME280;5542;48.272;10.794;2023-01-27T02:44:08;95720.31;;;-0.61;87.17
10978;BME280;5542;48.272;10.794;2023-01-27T02:46:35;95713.69;;;-0.64;87.29
10978;BME280;5542;48.272;10.794;2023-01-27T02:49:02;95709.66;;;-0.66;87.37
10978;BME280;5542;48.272;10.794;2023-01-27T02:51:29;95702.06;;;-0.68;87.03
10978;BME280;5542;48.272;10.794;2023-01-27T02:53:55;95716.56;;;-0.75;87.14
10978;BME280;5542;48.272;10.794;2023-01-27T02:56:22;95720.41;;;-0.87;86.66
10978;BME280;5542;48.272;10.794;2023-01-27T02:58:48;95709.31;;;-0.80;86.69
10978;BME280;5542;48.272;10.794;2023-01-27T03:01:16;95699.81;;;-0.71;86.31
10978;BME280;5542;48.272;10.794;2023-01-27T03:03:43;95698.66;;;-0.68;86.02
10978;BME280;5542;48.272;10.794;2023-01-27T03:06:11;95698.50;;;-0.67;86.20
10978;BME280;5542;48.272;10.794;2023-01-27T03:08:38;95696.09;;;-0.68;86.62
10978;BME280;5542;48.272;10.794;2023-01-27T03:11:06;95697.38;;;-0.64;86.66
10978;BME280;5542;48.272;10.794;2023-01-27T03:13:32;95703.34;;;-0.64;86.72
10978;BME280;5542;48.272;10.794;2023-01-27T03:15:58;95707.56;;;-0.71;86.12
10978;BME280;5542;48.272;10.794;2023-01-27T03:18:44;95700.75;;;-0.72;86.04
10978;BME280;5542;48.272;10.794;2023-01-27T03:21:15;95700.59;;;-0.70;86.24
10978;BME280;5542;48.272;10.794;2023-01-27T03:23:42;95699.94;;;-0.72;86.46
10978;BME280;5542;48.272;10.794;2023-01-27T03:26:10;95695.59;;;-0.80;86.29
10978;BME280;5542;48.272;10.794;2023-01-27T03:28:37;95698.63;;;-0.77;86.28
10978;BME280;5542;48.272;10.794;2023-01-27T03:31:06;95694.16;;;-0.66;85.81
10978;BME280;5542;48.272;10.794;2023-01-27T03:33:34;95684.63;;;-0.66;85.87
10978;BME280;5542;48.272;10.794;2023-01-27T03:36:02;95684.63;;;-0.66;86.02
10978;BME280;5542;48.272;10.794;2023-01-27T03:38:47;95701.25;;;-0.68;86.03
10978;BME280;5542;48.272;10.794;2023-01-27T03:41:32;95693.50;;;-0.68;84.08
10978;BME280;5542;48.272;10.794;2023-01-27T03:44:16;95695.13;;;-0.75;84.84
10978;BME280;5542;48.272;10.794;2023-01-27T03:47:00;95700.59;;;-0.70;85.14
10978;BME280;5542;48.272;10.794;2023-01-27T03:49:27;95700.59;;;-0.70;85.55
10978;BME280;5542;48.272;10.794;2023-01-27T03:51:54;95705.09;;;-0.72;85.82
10978;BME280;5542;48.272;10.794;2023-01-27T03:54:21;95709.78;;;-0.68;85.70
10978;BME280;5542;48.272;10.794;2023-01-27T03:56:47;95710.28;;;-0.72;86.31
10978;BME280;5542;48.272;10.794;2023-01-27T03:59:14;95710.75;;;-0.77;86.33
10978;BME280;5542;48.272;10.794;2023-01-27T04:01:41;95714.00;;;-0.75;86.50
10978;BME280;5542;48.272;10.794;2023-01-27T04:04:08;95710.59;;;-0.67;86.10
10978;BME280;5542;48.272;10.794;2023-01-27T04:06:52;95705.28;;;-0.74;86.79
10978;BME280;5542;48.272;10.794;2023-01-27T04:09:24;95716.38;;;-0.82;86.68
10978;BME280;5542;48.272;10.794;2023-01-27T04:11:51;95706.72;;;-0.71;86.47
10978;BME280;5542;48.272;10.794;2023-01-27T04:14:20;95702.66;;;-0.82;86.58
10978;BME280;5542;48.272;10.794;2023-01-27T04:16:47;95702.53;;;-0.81;86.61
10978;BME280;5542;48.272;10.794;2023-01-27T04:19:14;95700.88;;;-0.82;86.64
10978;BME280;5542;48.272;10.794;2023-01-27T04:21:40;95706.41;;;-0.68;85.61
10978;BME280;5542;48.272;10.794;2023-01-27T04:24:09;95701.06;;;-0.83;85.04
10978;BME280;5542;48.272;10.794;2023-01-27T04:26:44;95696.69;;;-0.99;85.39
10978;BME280;5542;48.272;10.794;2023-01-27T04:29:11;95699.72;;;-1.04;86.05
10978;BME280;5542;48.272;10.794;2023-01-27T04:31:39;95706.00;;;-1.06;86.60
10978;BME280;5542;48.272;10.794;2023-01-27T04:34:07;95702.47;;;-0.97;86.59
10978;BME280;5542;48.272;10.794;2023-01-27T04:36:35;95702.81;;;-0.92;86.64
10978;BME280;5542;48.272;10.794;2023-01-27T04:39:01;95709.28;;;-0.88;86.50
10978;BME280;5542;48.272;10.794;2023-01-27T04:41:28;95707.34;;;-0.94;86.27
10978;BME280;5542;48.272;10.794;2023-01-27T04:43:56;95691.03;;;-0.94;86.15
10978;BME280;5542;48.272;10.794;2023-01-27T04:46:22;95699.25;;;-0.91;86.16
10978;BME280;5542;48.272;10.794;2023-01-27T04:48:49;95701.53;;;-0.88;86.29
10978;BME280;5542;48.272;10.794;2023-01-27T04:51:15;95705.09;;;-0.89;86.37
10978;BME280;5542;48.272;10.794;2023-01-27T04:53:42;95709.44;;;-0.89;86.43
10978;BME280;5542;48.272;10.794;2023-01-27T04:56:19;95700.41;;;-0.85;86.08
10978;BME280;5542;48.272;10.794;2023-01-27T04:58:46;95714.88;;;-1.09;86.08
10978;BME280;5542;48.272;10.794;2023-01-27T05:01:14;95713.38;;;-1.19;86.65
10978;BME280;5542;48.272;10.794;2023-01-27T05:03:41;95709.00;;;-1.27;87.05
10978;BME280;5542;48.272;10.794;2023-01-27T05:06:08;95714.28;;;-1.29;87.55
10978;BME280;5542;48.272;10.794;2023-01-27T05:08:35;95710.91;;;-1.29;87.28
10978;BME280;5542;48.272;10.794;2023-01-27T05:11:01;95714.50;;;-1.22;87.21
10978;BME280;5542;48.272;10.794;2023-01-27T05:13:28;95716.09;;;-1.21;87.54
10978;BME280;5542;48.272;10.794;2023-01-27T05:16:03;95725.34;;;-1.44;87.05
10978;BME280;5542;48.272;10.794;2023-01-27T05:18:31;95726.50;;;-1.47;87.41
10978;BME280;5542;48.272;10.794;2023-01-27T05:20:58;95720.13;;;-1.61;87.57
10978;BME280;5542;48.272;10.794;2023-01-27T05:23:25;95719.69;;;-1.48;88.23
10978;BME280;5542;48.272;10.794;2023-01-27T05:26:02;95712.00;;;-1.40;88.06
10978;BME280;5542;48.272;10.794;2023-01-27T05:28:29;95712.56;;;-1.20;88.26
10978;BME280;5542;48.272;10.794;2023-01-27T05:31:00;95711.41;;;-1.25;87.79
10978;BME280;5542;48.272;10.794;2023-01-27T05:33:27;95713.03;;;-1.24;87.74
10978;BME280;5542;48.272;10.794;2023-01-27T05:35:57;95711.59;;;-1.19;88.18
10978;BME280;5542;48.272;10.794;2023-01-27T05:38:23;95707.44;;;-1.12;87.65
10978;BME280;5542;48.272;10.794;2023-01-27T05:40:54;95711.16;;;-1.06;88.22
10978;BME280;5542;48.272;10.794;2023-01-27T05:43:20;95714.72;;;-1.07;88.12
10978;BME280;5542;48.272;10.794;2023-01-27T05:45:47;95716.66;;;-1.01;87.82
10978;BME280;5542;48.272;10.794;2023-01-27T05:48:13;95721.47;;;-1.06;87.79
10978;BME280;5542;48.272;10.794;2023-01-27T05:50:40;95731.00;;;-1.07;87.62
10978;BME280;5542;48.272;10.794;2023-01-27T05:53:08;95725.81;;;-1.15;87.50
10978;BME280;5542;48.272;10.794;2023-01-27T05:55:34;95734.34;;;-1.14;87.68
10978;BME280;5542;48.272;10.794;2023-01-27T05:58:01;95735.66;;;-1.18;87.74
10978;BME280;5542;48.272;10.794;2023-01-27T06:00:27;95736.28;;;-1.16;87.77
10978;BME280;5542;48.272;10.794;2023-01-27T06:05:22;95742.81;;;-1.04;87.61
10978;BME280;5542;48.272;10.794;2023-01-27T06:07:48;95743.41;;;-1.10;87.62
10978;BME280;5542;48.272;10.794;2023-01-27T06:10:16;95746.19;;;-0.95;87.33
10978;BME280;5542;48.272;10.794;2023-01-27T06:12:43;95752.78;;;-1.09;87.45
10978;BME280;5542;48.272;10.794;2023-01-27T06:15:10;95754.06;;;-1.05;87.54
10978;BME280;5542;48.272;10.794;2023-01-27T06:17:37;95761.78;;;-1.13;87.35
10978;BME280;5542;48.272;10.794;2023-01-27T06:20:04;95757.28;;;-1.11;87.32
10978;BME280;5542;48.272;10.794;2023-01-27T06:22:31;95761.34;;;-1.09;87.18
10978;BME280;5542;48.272;10.794;2023-01-27T06:24:57;95756.97;;;-1.08;87.44
10978;BME280;5542;48.272;10.794;2023-01-27T06:27:25;95760.03;;;-1.13;87.56
10978;BME280;5542;48.272;10.794;2023-01-27T06:29:52;95760.28;;;-1.24;87.50
10978;BME280;5542;48.272;10.794;2023-01-27T06:32:18;95761.91;;;-1.23;88.40
10978;BME280;5542;48.272;10.794;2023-01-27T06:34:45;95766.78;;;-1.12;87.95
10978;BME280;5542;48.272;10.794;2023-01-27T06:37:11;95762.91;;;-1.16;87.53
10978;BME280;5542;48.272;10.794;2023-01-27T06:39:38;95766.28;;;-1.15;87.77
10978;BME280;5542;48.272;10.794;2023-01-27T06:42:05;95770.13;;;-1.19;87.85
10978;BME280;5542;48.272;10.794;2023-01-27T06:44:35;95772.38;;;-1.24;87.87
10978;BME280;5542;48.272;10.794;2023-01-27T06:47:01;95771.06;;;-1.29;88.43
10978;BME280;5542;48.272;10.794;2023-01-27T06:49:28;95772.34;;;-1.33;88.26
10978;BME280;5542;48.272;10.794;2023-01-27T06:51:54;95774.81;;;-1.23;88.61
10978;BME280;5542;48.272;10.794;2023-01-27T06:54:21;95780.13;;;-1.24;88.58
10978;BME280;5542;48.272;10.794;2023-01-27T06:56:47;95782.59;;;-1.15;88.93
10978;BME280;5542;48.272;10.794;2023-01-27T06:59:14;95785.38;;;-1.08;88.93
10978;BME280;5542;48.272;10.794;2023-01-27T07:01:42;95791.22;;;-0.98;88.84
10978;BME280;5542;48.272;10.794;2023-01-27T07:04:08;95786.09;;;-0.90;88.66
10978;BME280;5542;48.272;10.794;2023-01-27T07:06:35;95784.00;;;-0.86;88.62
10978;BME280;5542;48.272;10.794;2023-01-27T07:09:01;95794.44;;;-0.96;88.54
10978;BME280;5542;48.272;10.794;2023-01-27T07:11:28;95810.09;;;-0.97;88.58
10978;BME280;5542;48.272;10.794;2023-01-27T07:13:54;95809.63;;;-0.93;88.13
10978;BME280;5542;48.272;10.794;2023-01-27T07:16:21;95803.91;;;-1.05;87.83
10978;BME280;5542;48.272;10.794;2023-01-27T07:18:49;95804.44;;;-1.01;87.85
10978;BME280;5542;48.272;10.794;2023-01-27T07:21:15;95816.06;;;-0.97;87.74
10978;BME280;5542;48.272;10.794;2023-01-27T07:23:42;95811.25;;;-0.92;87.81
10978;BME280;5542;48.272;10.794;2023-01-27T07:26:08;95813.84;;;-0.92;88.08
10978;BME280;5542;48.272;10.794;2023-01-27T07:28:35;95819.00;;;-0.92;87.23
10978;BME280;5542;48.272;10.794;2023-01-27T07:31:01;95816.38;;;-1.00;86.97
10978;BME280;5542;48.272;10.794;2023-01-27T07:33:28;95822.00;;;-1.05;86.78
10978;BME280;5542;48.272;10.794;2023-01-27T07:35:56;95822.88;;;-1.22;87.28
10978;BME280;5542;48.272;10.794;2023-01-27T07:38:23;95830.47;;;-1.20;88.55
10978;BME280;5542;48.272;10.794;2023-01-27T07:40:49;95832.75;;;-1.17;88.52
10978;BME280;5542;48.272;10.794;2023-01-27T07:43:16;95827.66;;;-1.09;88.93
10978;BME280;5542;48.272;10.794;2023-01-27T07:45:42;95818.59;;;-1.05;88.80
10978;BME280;5542;48.272;10.794;2023-01-27T07:48:13;95815.31;;;-1.15;88.45
10978;BME280;5542;48.272;10.794;2023-01-27T07:50:40;95819.84;;;-1.17;88.95
10978;BME280;5542;48.272;10.794;2023-01-27T07:53:09;95805.06;;;-1.07;89.17
10978;BME280;5542;48.272;10.794;2023-01-27T07:55:36;95807.81;;;-1.00;89.05
10978;BME280;5542;48.272;10.794;2023-01-27T07:58:03;95814.25;;;-1.05;89.12
10978;BME280;5542;48.272;10.794;2023-01-27T08:00:29;95818.00;;;-0.99;89.16
10978;BME280;5542;48.272;10.794;2023-01-27T08:02:57;95811.25;;;-0.92;88.89
10978;BME280;5542;48.272;10.794;2023-01-27T08:05:24;95810.75;;;-0.95;89.06
10978;BME280;5542;48.272;10.794;2023-01-27T08:07:53;95806.03;;;-1.00;88.80
10978;BME280;5542;48.272;10.794;2023-01-27T08:10:21;95797.00;;;-1.04;88.56
10978;BME280;5542;48.272;10.794;2023-01-27T08:12:48;95788.19;;;-0.93;88.40
10978;BME280;5542;48.272;10.794;2023-01-27T08:15:15;95803.84;;;-0.95;88.44
10978;BME280;5542;48.272;10.794;2023-01-27T08:17:41;95799.19;;;-1.17;88.22
10978;BME280;5542;48.272;10.794;2023-01-27T08:20:09;95800.97;;;-1.18;88.78
10978;BME280;5542;48.272;10.794;2023-01-27T08:22:36;95805.91;;;-1.24;88.84
10978;BME280;5542;48.272;10.794;2023-01-27T08:25:03;95809.63;;;-1.27;88.63
10978;BME280;5542;48.272;10.794;2023-01-27T08:27:31;95818.53;;;-1.21;88.62
10978;BME280;5542;48.272;10.794;2023-01-27T08:29:57;95814.63;;;-1.25;88.94
10978;BME280;5542;48.272;10.794;2023-01-27T08:32:24;95817.50;;;-1.29;89.38
10978;BME280;5542;48.272;10.794;2023-01-27T08:34:50;95819.84;;;-1.17;89.15
10978;BME280;5542;48.272;10.794;2023-01-27T08:37:18;95818.59;;;-1.05;89.27
10978;BME280;5542;48.272;10.794;2023-01-27T08:39:45;95827.66;;;-1.01;89.30
10978;BME280;5542;48.272;10.794;2023-01-27T08:42:11;95827.31;;;-1.06;89.14
10978;BME280;5542;48.272;10.794;2023-01-27T08:44:39;95825.88;;;-1.00;88.98
10978;BME280;5542;48.272;10.794;2023-01-27T08:47:06;95832.72;;;-0.91;88.98
10978;BME280;5542;48.272;10.794;2023-01-27T08:49:32;95822.00;;;-1.05;89.31
10978;BME280;5542;48.272;10.794;2023-01-27T08:51:59;95829.31;;;-0.92;89.12
10978;BME280;5542;48.272;10.794;2023-01-27T08:54:25;95825.16;;;-0.85;88.94
10978;BME280;5542;48.272;10.794;2023-01-27T08:56:52;95830.22;;;-0.75;88.71
10978;BME280;5542;48.272;10.794;2023-01-27T08:59:18;95844.56;;;-0.81;88.05
10978;BME280;5542;48.272;10.794;2023-01-27T09:01:46;95845.03;;;-0.77;87.16
10978;BME280;5542;48.272;10.794;2023-01-27T09:04:13;95836.09;;;-0.91;87.97
10978;BME280;5542;48.272;10.794;2023-01-27T09:06:39;95843.72;;;-0.89;88.41
10978;BME280;5542;48.272;10.794;2023-01-27T09:09:06;95842.56;;;-0.95;88.11
10978;BME280;5542;48.272;10.794;2023-01-27T09:11:36;95838.38;;;-0.88;88.19
10978;BME280;5542;48.272;10.794;2023-01-27T09:14:04;95839.69;;;-0.84;88.64
10978;BME280;5542;48.272;10.794;2023-01-27T09:16:30;95838.44;;;-0.80;88.99
10978;BME280;5542;48.272;10.794;2023-01-27T09:18:58;95836.81;;;-0.81;89.27
10978;BME280;5542;48.272;10.794;2023-01-27T09:21:25;95840.03;;;-0.79;89.36
10978;BME280;5542;48.272;10.794;2023-01-27T09:23:52;95838.44;;;-0.80;88.95
10978;BME280;5542;48.272;10.794;2023-01-27T09:26:18;95851.13;;;-0.86;87.74
10978;BME280;5542;48.272;10.794;2023-01-27T09:28:45;95855.59;;;-0.96;88.43
10978;BME280;5542;48.272;10.794;2023-01-27T09:31:11;95855.94;;;-0.99;89.19
10978;BME280;5542;48.272;10.794;2023-01-27T09:33:38;95857.66;;;-1.00;89.13
10978;BME280;5542;48.272;10.794;2023-01-27T09:36:09;95857.38;;;-0.97;89.46
10978;BME280;5542;48.272;10.794;2023-01-27T09:38:41;95853.28;;;-1.08;88.80
10978;BME280;5542;48.272;10.794;2023-01-27T09:41:27;95858.97;;;-1.04;88.16
10978;BME280;5542;48.272;10.794;2023-01-27T09:44:14;95859.97;;;-1.23;89.32
10978;BME280;5542;48.272;10.794;2023-01-27T09:47:12;95869.09;;;-1.37;89.52
10978;BME280;5542;48.272;10.794;2023-01-27T09:53:02;95863.03;;;-1.19;89.06
10978;BME280;5542;48.272;10.794;2023-01-27T09:55:38;95863.78;;;-1.09;89.09
10978;BME280;5542;48.272;10.794;2023-01-27T09:58:14;95870.75;;;-1.01;89.46
10978;BME280;5542;48.272;10.794;2023-01-27T10:00:50;95872.34;;;-1.00;88.69
10978;BME280;5542;48.272;10.794;2023-01-27T10:03:41;95872.56;;;-0.94;89.24
10978;BME280;5542;48.272;10.794;2023-01-27T10:06:24;95871.44;;;-0.91;89.56
10978;BME280;5542;48.272;10.794;2023-01-27T10:09:12;95874.38;;;-0.86;88.65
10978;BME280;5542;48.272;10.794;2023-01-27T10:11:51;95865.34;;;-0.82;88.94
10978;BME280;5542;48.272;10.794;2023-01-27T10:14:27;95858.75;;;-0.77;89.17
10978;BME280;5542;48.272;10.794;2023-01-27T10:17:15;95864.31;;;-0.63;88.97
10978;BME280;5542;48.272;10.794;2023-01-27T10:20:00;95870.16;;;-0.53;88.55
10978;BME280;5542;48.272;10.794;2023-01-27T10:22:40;95865.91;;;-0.70;87.00
10978;BME280;5542;48.272;10.794;2023-01-27T10:25:20;95871.94;;;-0.88;87.76
10978;BME280;5542;48.272;10.794;2023-01-27T10:27:53;95875.84;;;-0.84;88.65
10978;BME280;5542;48.272;10.794;2023-01-27T10:30:27;95872.47;;;-0.76;88.79
10978;BME280;5542;48.272;10.794;2023-01-27T10:33:06;95869.56;;;-0.81;87.51
10978;BME280;5542;48.272;10.794;2023-01-27T10:35:42;95870.13;;;-0.95;88.48
10978;BME280;5542;48.272;10.794;2023-01-27T10:38:20;95871.31;;;-0.90;89.16
10978;BME280;5542;48.272;10.794;2023-01-27T10:40:53;95871.31;;;-0.82;89.42
10978;BME280;5542;48.272;10.794;2023-01-27T10:43:30;95865.28;;;-0.64;89.20
10978;BME280;5542;48.272;10.794;2023-01-27T10:46:07;95856.97;;;-0.76;88.12
10978;BME280;5542;48.272;10.794;2023-01-27T10:48:40;95853.59;;;-0.77;88.47
10978;BME280;5542;48.272;10.794;2023-01-27T10:51:11;95847.03;;;-0.71;88.84
10978;BME280;5542;48.272;10.794;2023-01-27T10:53:46;95853.50;;;-0.59;88.72
10978;BME280;5542;48.272;10.794;2023-01-27T10:56:20;95857.88;;;-0.59;88.48
10978;BME280;5542;48.272;10.794;2023-01-27T10:58:54;95872.06;;;-0.63;87.67
10978;BME280;5542;48.272;10.794;2023-01-27T11:01:28;95873.84;;;-0.64;87.49
10978;BME280;5542;48.272;10.794;2023-01-27T11:03:59;95867.22;;;-0.66;88.04
10978;BME280;5542;48.272;10.794;2023-01-27T11:06:29;95873.31;;;-0.75;87.83
10978;BME280;5542;48.272;10.794;2023-01-27T11:09:05;95874.59;;;-0.71;88.01
10978;BME280;5542;48.272;10.794;2023-01-27T11:11:35;95876.25;;;-0.62;87.63
10978;BME280;5542;48.272;10.794;2023-01-27T11:14:18;95875.16;;;-0.86;87.50
10978;BME280;5542;48.272;10.794;2023-01-27T11:16:48;95878.44;;;-0.84;87.90
10978;BME280;5542;48.272;10.794;2023-01-27T11:19:22;95870.84;;;-0.85;88.20
10978;BME280;5542;48.272;10.794;2023-01-27T11:21:52;95877.16;;;-0.80;88.33
10978;BME280;5542;48.272;10.794;2023-01-27T11:24:23;95878.16;;;-0.72;88.07
10978;BME280;5542;48.272;10.794;2023-01-27T11:26:59;95875.91;;;-0.75;88.40
10978;BME280;5542;48.272;10.794;2023-01-27T11:29:33;95875.66;;;-0.56;87.84
10978;BME280;5542;48.272;10.794;2023-01-27T11:32:08;95864.19;;;-0.62;84.74
10978;BME280;5542;48.272;10.794;2023-01-27T11:34:40;95870.22;;;-0.79;86.16
10978;BME280;5542;48.272;10.794;2023-01-27T11:37:16;95868.78;;;-0.73;87.17
10978;BME280;5542;48.272;10.794;2023-01-27T11:39:43;95862.88;;;-0.66;87.76
10978;BME280;5542;48.272;10.794;2023-01-27T11:42:11;95858.16;;;-0.70;87.61
10978;BME280;5542;48.272;10.794;2023-01-27T11:44:39;95864.00;;;-0.60;87.18
10978;BME280;5542;48.272;10.794;2023-01-27T11:47:14;95859.19;;;-0.55;87.51
10978;BME280;5542;48.272;10.794;2023-01-27T11:49:47;95849.63;;;-0.63;87.41
10978;BME280;5542;48.272;10.794;2023-01-27T11:52:17;95853.16;;;-0.64;87.62
10978;BME280;5542;48.272;10.794;2023-01-27T11:54:49;95855.28;;;-0.59;87.85
10978;BME280;5542;48.272;10.794;2023-01-27T11:57:20;95847.09;;;-0.46;87.70
10978;BME280;5542;48.272;10.794;2023-01-27T11:59:49;95849.38;;;-0.35;87.44
10978;BME280;5542;48.272;10.794;2023-01-27T12:02:24;95853.44;;;-0.24;86.79
10978;BME280;5542;48.272;10.794;2023-01-27T12:04:58;95862.34;;;-0.27;86.79
10978;BME280;5542;48.272;10.794;2023-01-27T12:07:34;95856.50;;;-0.29;86.72
10978;BME280;5542;48.272;10.794;2023-01-27T12:10:21;95860.91;;;-0.21;85.77
10978;BME280;5542;48.272;10.794;2023-01-27T12:12:49;95863.13;;;-0.35;86.38
10978;BME280;5542;48.272;10.794;2023-01-27T12:15:17;95859.56;;;-0.34;86.71
10978;BME280;5542;48.272;10.794;2023-01-27T12:17:46;95857.94;;;-0.35;85.93
10978;BME280;5542;48.272;10.794;2023-01-27T12:20:41;95851.47;;;-0.47;86.55
10978;BME280;5542;48.272;10.794;2023-01-27T12:23:18;95851.13;;;-0.44;86.82
10978;BME280;5542;48.272;10.794;2023-01-27T12:25:47;95849.69;;;-0.46;86.51
10978;BME280;5542;48.272;10.794;2023-01-27T12:28:28;95849.50;;;-0.53;87.02
10978;BME280;5542;48.272;10.794;2023-01-27T12:31:03;95837.25;;;-0.43;86.69
10978;BME280;5542;48.272;10.794;2023-01-27T12:33:31;95845.66;;;-0.41;86.49
10978;BME280;5542;48.272;10.794;2023-01-27T12:36:00;95839.22;;;-0.37;86.56
10978;BME280;5542;48.272;10.794;2023-01-27T12:38:33;95831.13;;;-0.34;86.62
10978;BME280;5542;48.272;10.794;2023-01-27T12:41:02;95833.69;;;-0.50;86.37
10978;BME280;5542;48.272;10.794;2023-01-27T12:43:31;95823.53;;;-0.35;86.36
10978;BME280;5542;48.272;10.794;2023-01-27T12:46:17;95821.63;;;-0.25;85.92
10978;BME280;5542;48.272;10.794;2023-01-27T12:48:47;95822.78;;;-0.28;86.46
10978;BME280;5542;48.272;10.794;2023-01-27T12:51:16;95822.44;;;-0.24;86.54
10978;BME280;5542;48.272;10.794;2023-01-27T12:53:44;95823.75;;;-0.20;86.91
10978;BME280;5542;48.272;10.794;2023-01-27T12:56:13;95817.94;;;-0.06;86.07
10978;BME280;5542;48.272;10.794;2023-01-27T12:58:44;95829.59;;;-0.02;84.85
10978;BME280;5542;48.272;10.794;2023-01-27T13:01:25;95826.22;;;0.06;84.07
10978;BME280;5542;48.272;10.794;2023-01-27T13:03:55;95820.72;;;0.17;83.93
10978;BME280;5542;48.272;10.794;2023-01-27T13:06:29;95822.50;;;0.00;84.63
10978;BME280;5542;48.272;10.794;2023-01-27T13:08:59;95818.13;;;-0.08;85.14
10978;BME280;5542;48.272;10.794;2023-01-27T13:11:32;95823.94;;;0.03;85.70
10978;BME280;5542;48.272;10.794;2023-01-27T13:14:06;95821.50;;;0.09;84.77
10978;BME280;5542;48.272;10.794;2023-01-27T13:16:33;95827.50;;;0.18;82.44
10978;BME280;5542;48.272;10.794;2023-01-27T13:19:00;95829.25;;;-0.07;83.44